Time;durP1;ratioP1;P1;durP2;ratioP2;P2;SDS_P1;SDS_P2;PMS_P1;PMS_P2;Temp;Humidity;BMP_temperature;BMP_pressure;BME280_temperature;BME280_humidity;BME280_pressure;Samples;Min_cycle;Max_cycle;Signal;HPM_P1;HPM_P2
2024/01/16 00:00:08;;;;;;;;;;;0.40;99.90;;;;;;5037640;28;20062;-63
2024/01/16 00:02:34;;;;;;;8.23;1.60;;;0.50;99.90;;;;;;5089480;28;19920;-64
2024/01/16 00:05:01;;;;;;;3.40;2.25;;;0.50;99.90;;;;;;5090103;28;20040;-66
2024/01/16 00:07:27;;;;;;;;;;;0.60;99.90;;;;;;5090543;28;20058;-64
2024/01/16 00:09:53;;;;;;;6.13;1.63;;;0.40;99.90;;;;;;5089014;28;19924;-64
2024/01/16 00:12:20;;;;;;;5.18;1.50;;;0.40;99.90;;;;;;5034999;28;20064;-64
2024/01/16 00:14:47;;;;;;;5.78;1.92;;;0.40;99.90;;;;;;5069521;28;20051;-64
2024/01/16 00:17:13;;;;;;;;;;;0.30;99.90;;;;;;5070024;28;20048;-63
2024/01/16 00:19:41;;;;;;;7.68;1.70;;;0.30;99.90;;;;;;5069523;28;19924;-64
2024/01/16 00:22:07;;;;;;;3.70;1.15;;;0.30;99.90;;;;;;5087903;28;20181;-63
2024/01/16 00:24:33;;;;;;;;;;;0.20;99.90;;;;;;5090842;28;20472;-63
2024/01/16 00:26:59;;;;;;;5.75;1.33;;;0.10;99.90;;;;;;5093974;28;19928;-64
2024/01/16 00:29:26;;;;;;;;;;;0.10;99.90;;;;;;5076163;28;20051;-64
2024/01/16 00:31:52;;;;;;;6.13;1.20;;;0.30;99.90;;;;;;5080032;28;19936;-64
2024/01/16 00:34:18;;;;;;;3.45;1.30;;;0.00;99.90;;;;;;5093434;28;20055;-64
2024/01/16 00:36:44;;;;;;;3.45;1.20;;;0.20;99.90;;;;;;5075421;28;20051;-64
2024/01/16 00:39:11;;;;;;;;;;;0.20;99.90;;;;;;5093900;28;20260;-64
2024/01/16 00:41:37;;;;;;;3.22;1.23;;;0.10;99.90;;;;;;5060264;28;19921;-63
2024/01/16 00:44:03;;;;;;;;;;;-0.10;99.90;;;;;;5073807;28;20056;-64
2024/01/16 00:46:30;;;;;;;5.40;1.52;;;0.00;99.90;;;;;;5073116;28;20303;-65
2024/01/16 00:48:56;;;;;;;9.55;2.67;;;0.00;99.90;;;;;;5055352;28;20048;-63
2024/01/16 00:51:22;;;;;;;16.58;4.57;;;0.00;99.90;;;;;;5059709;28;20126;-64
2024/01/16 00:53:50;;;;;;;;;;;0.10;99.90;;;;;;5052703;28;20048;-64
2024/01/16 00:56:16;;;;;;;5.65;1.60;;;0.00;99.90;;;;;;5053000;28;19924;-64
2024/01/16 00:58:42;;;;;;;;;;;0.10;99.90;;;;;;5053620;28;20056;-63
2024/01/16 01:01:09;;;;;;;6.68;2.03;;;0.20;99.90;;;;;;5059822;28;20011;-64
2024/01/16 01:03:35;;;;;;;;;;;0.00;99.90;;;;;;5073365;28;20058;-65
2024/01/16 01:06:02;;;;;;;9.27;2.65;;;0.00;99.90;;;;;;5072928;28;19920;-64
2024/01/16 01:08:30;;;;;;;9.00;2.63;;;0.20;99.90;;;;;;5055407;28;20554;-64
2024/01/16 01:10:56;;;;;;;5.47;1.52;;;0.10;99.90;;;;;;5063569;28;20114;-64
2024/01/16 01:13:22;;;;;;;6.72;1.33;;;-0.10;99.90;;;;;;5053046;28;20045;-64
2024/01/16 01:15:49;;;;;;;4.60;1.60;;;-0.10;99.90;;;;;;5052524;28;20384;-65
2024/01/16 01:18:16;;;;;;;6.63;2.13;;;-0.10;99.90;;;;;;5052691;28;20049;-64
2024/01/16 01:20:43;;;;;;;7.72;2.40;;;-0.10;99.90;;;;;;5058950;28;20056;-64
2024/01/16 01:23:09;;;;;;;4.22;1.98;;;-0.10;99.90;;;;;;5072561;28;20131;-62
2024/01/16 01:25:36;;;;;;;4.00;1.42;;;0.00;99.90;;;;;;5054965;28;20060;-63
2024/01/16 01:28:02;;;;;;;;;;;-0.20;99.90;;;;;;5072954;28;20079;-63
2024/01/16 01:30:28;;;;;;;12.20;3.65;;;-0.20;99.90;;;;;;5066589;28;20387;-64
2024/01/16 01:32:56;;;;;;;;;;;-0.10;99.90;;;;;;5052752;28;20045;-64
2024/01/16 01:35:22;;;;;;;16.33;3.13;;;0.00;99.90;;;;;;5054901;28;20318;-64
2024/01/16 01:37:49;;;;;;;;;;;-0.10;99.90;;;;;;5054217;28;20056;-64
2024/01/16 01:40:15;;;;;;;8.18;3.00;;;-0.20;99.90;;;;;;5034868;28;19920;-64
2024/01/16 01:42:42;;;;;;;7.50;2.25;;;-0.10;99.90;;;;;;5050865;28;20053;-64
2024/01/16 01:45:11;;;;;;;4.10;1.88;;;-0.10;99.90;;;;;;5052121;28;20126;-64
2024/01/16 01:47:44;;;;;;;4.90;1.40;;;-0.10;99.90;;;;;;5066724;28;20059;-64
2024/01/16 01:50:12;;;;;;;3.83;1.20;;;-0.20;99.90;;;;;;5091372;28;20054;-65
2024/01/16 01:52:40;;;;;;;4.03;1.30;;;-0.10;99.90;;;;;;5057082;28;20074;-63
2024/01/16 01:55:10;;;;;;;5.07;1.20;;;-0.30;99.90;;;;;;5092171;28;20126;-63
2024/01/16 01:57:37;;;;;;;3.75;1.45;;;-0.30;99.90;;;;;;5074724;28;20044;-64
2024/01/16 02:00:04;;;;;;;2.47;1.10;;;-0.40;99.90;;;;;;5090491;28;20052;-63
2024/01/16 02:02:32;;;;;;;6.20;1.60;;;-0.40;99.90;;;;;;5070361;28;20512;-65
2024/01/16 02:04:58;;;;;;;15.13;4.22;;;-0.40;99.90;;;;;;5071924;28;20048;-64
2024/01/16 02:07:25;;;;;;;16.77;4.68;;;-0.30;99.90;;;;;;5071602;28;20052;-63
2024/01/16 02:09:51;;;;;;;23.90;5.18;;;-0.20;99.90;;;;;;5071937;28;20063;-64
2024/01/16 02:12:17;;;;;;;9.13;3.08;;;-0.10;99.90;;;;;;5090449;28;20487;-64
2024/01/16 02:14:44;;;;;;;5.35;1.58;;;-0.20;99.90;;;;;;5091812;28;20097;-65
2024/01/16 02:17:14;;;;;;;12.52;2.45;;;0.00;99.90;;;;;;5091891;28;20082;-64
2024/01/16 02:19:40;;;;;;;14.57;4.03;;;-0.10;99.90;;;;;;5074008;28;20620;-65
2024/01/16 02:22:09;;;;;;;;;;;-0.10;99.90;;;;;;5055047;28;20053;-62
2024/01/16 02:24:36;;;;;;;5.45;1.73;;;0.00;99.90;;;;;;5071437;28;19954;-63
2024/01/16 02:27:03;;;;;;;6.47;1.83;;;0.00;99.90;;;;;;5071247;28;20044;-64
2024/01/16 02:29:29;;;;;;;6.80;1.75;;;-0.10;99.90;;;;;;5071454;28;20044;-63
2024/01/16 02:31:56;;;;;;;6.60;2.10;;;-0.10;99.90;;;;;;5069489;28;20486;-64
2024/01/16 02:34:23;;;;;;;9.63;2.25;;;-0.10;99.90;;;;;;5091509;28;20044;-65
2024/01/16 02:36:49;;;;;;;7.72;2.55;;;0.00;99.90;;;;;;5073480;28;20051;-64
2024/01/16 02:39:16;;;;;;;7.75;2.75;;;-0.10;99.90;;;;;;5091674;28;20130;-64
2024/01/16 02:41:43;;;;;;;4.30;2.58;;;0.00;99.90;;;;;;5058531;28;20067;-64
2024/01/16 02:44:11;;;;;;;5.07;2.33;;;-0.10;99.90;;;;;;5071269;28;20101;-63
2024/01/16 02:46:38;;;;;;;7.18;3.15;;;0.10;99.90;;;;;;5070948;28;20045;-64
2024/01/16 02:49:07;;;;;;;8.35;2.30;;;0.00;99.90;;;;;;5052735;28;20056;-63
2024/01/16 02:51:33;;;;;;;9.02;2.08;;;0.10;99.90;;;;;;5048824;28;20052;-64
2024/01/16 02:53:59;;;;;;;;;;;0.10;99.90;;;;;;5091661;28;20143;-64
2024/01/16 02:56:25;;;;;;;4.90;1.30;;;0.00;99.90;;;;;;5090933;28;19924;-62
2024/01/16 02:58:51;;;;;;;;;;;0.10;99.90;;;;;;5091485;28;20062;-64
2024/01/16 03:01:18;;;;;;;7.50;1.38;;;0.00;99.90;;;;;;5061214;28;19985;-64
2024/01/16 03:03:44;;;;;;;6.28;1.27;;;0.00;99.90;;;;;;5070809;28;20056;-64
2024/01/16 03:06:20;;;;;;;;;;;-0.10;99.90;;;;;;5073640;28;20059;-65
2024/01/16 03:08:47;;;;;;;;;;;0.00;99.90;;;;;;5071061;28;19931;-62
2024/01/16 03:11:13;;;;;;;4.63;1.35;;;-0.20;99.90;;;;;;5071166;28;19923;-63
2024/01/16 03:13:39;;;;;;;;;;;-0.20;99.90;;;;;;5091062;28;20081;-63
2024/01/16 03:16:09;;;;;;;5.68;1.30;;;-0.20;99.90;;;;;;5090854;28;19920;-64
2024/01/16 03:18:37;;;;;;;3.70;1.85;;;-0.30;99.90;;;;;;5090563;28;20074;-63
2024/01/16 03:21:07;;;;;;;5.80;1.67;;;-0.30;99.90;;;;;;5088958;28;20055;-63
2024/01/16 03:23:33;;;;;;;5.07;1.40;;;-0.40;99.90;;;;;;5090461;28;20051;-63
2024/01/16 03:26:00;;;;;;;5.03;1.60;;;-0.30;99.90;;;;;;5090490;28;20062;-63
2024/01/16 03:28:26;;;;;;;4.57;1.30;;;-0.20;99.90;;;;;;5090494;28;20109;-63
2024/01/16 03:30:52;;;;;;;;;;;-0.20;99.90;;;;;;5071489;28;20472;-63
2024/01/16 03:33:19;;;;;;;4.18;1.42;;;-0.30;99.90;;;;;;5072338;28;19924;-63
2024/01/16 03:35:45;;;;;;;5.30;1.20;;;-0.30;99.90;;;;;;5072473;28;20066;-63
2024/01/16 03:38:11;;;;;;;;;;;-0.30;99.90;;;;;;5072303;28;20109;-64
2024/01/16 03:40:37;;;;;;;3.92;1.80;;;-0.20;99.90;;;;;;5066140;28;19927;-63
2024/01/16 03:43:05;;;;;;;;;;;-0.30;99.90;;;;;;5052501;28;20101;-63
2024/01/16 03:45:31;;;;;;;3.55;1.10;;;-0.40;99.90;;;;;;5051691;28;19943;-63
2024/01/16 03:47:58;;;;;;;;;;;-0.30;99.90;;;;;;5052341;28;20139;-64
2024/01/16 03:50:24;;;;;;;4.85;1.92;;;-0.40;99.90;;;;;;5054333;28;20244;-63
2024/01/16 03:52:50;;;;;;;;;;;-0.40;99.90;;;;;;5072066;28;20055;-63
2024/01/16 03:55:17;;;;;;;3.70;1.63;;;-0.30;99.90;;;;;;5071829;28;19935;-63
2024/01/16 03:57:43;;;;;;;;;;;-0.30;99.90;;;;;;5072290;28;20048;-62
2024/01/16 04:00:12;;;;;;;2.65;1.60;;;-0.40;99.90;;;;;;5069777;28;19943;-63
2024/01/16 04:02:38;;;;;;;3.20;1.52;;;-0.40;99.90;;;;;;5052056;28;20048;-63
2024/01/16 04:05:05;;;;;;;4.45;1.50;;;-0.30;99.90;;;;;;5068483;28;20125;-64
2024/01/16 04:07:31;;;;;;;3.70;1.70;;;-0.30;99.90;;;;;;5068579;28;20349;-63
2024/01/16 04:09:58;;;;;;;;;;;-0.40;99.90;;;;;;5068849;28;20052;-64
2024/01/16 04:12:24;;;;;;;4.15;1.60;;;-0.30;99.90;;;;;;5071373;28;20251;-62
2024/01/16 04:14:50;;;;;;;;;;;-0.40;99.90;;;;;;5072143;28;20142;-64
2024/01/16 04:17:16;;;;;;;4.78;1.30;;;-0.30;99.90;;;;;;5071980;28;20019;-63
2024/01/16 04:19:42;;;;;;;;;;;-0.40;99.90;;;;;;5072173;28;20052;-64
2024/01/16 04:22:09;;;;;;;7.53;1.85;;;-0.40;99.90;;;;;;5053845;28;19924;-63
2024/01/16 04:24:35;;;;;;;4.53;1.35;;;-0.30;99.90;;;;;;5051695;28;20461;-64
2024/01/16 04:27:01;;;;;;;;;;;-0.40;99.90;;;;;;5052062;28;20053;-63
2024/01/16 04:29:27;;;;;;;8.48;1.63;;;-0.30;99.90;;;;;;5051582;28;19935;-63
2024/01/16 04:31:54;;;;;;;;;;;-0.30;99.90;;;;;;5066684;28;20105;-64
2024/01/16 04:34:20;;;;;;;3.40;1.30;;;-0.20;99.90;;;;;;5071646;28;19924;-63
2024/01/16 04:36:46;;;;;;;;;;;-0.20;99.90;;;;;;5072228;28;20455;-64
2024/01/16 04:39:13;;;;;;;5.80;1.35;;;-0.30;99.90;;;;;;5071464;28;19923;-64
2024/01/16 04:41:39;;;;;;;2.80;1.30;;;-0.20;99.90;;;;;;5058243;28;20071;-63
2024/01/16 04:44:06;;;;;;;3.70;1.20;;;0.00;99.90;;;;;;5051311;28;20460;-64
2024/01/16 04:46:32;;;;;;;2.22;1.13;;;-0.20;99.90;;;;;;5051452;28;20072;-64
2024/01/16 04:48:58;;;;;;;3.42;1.50;;;0.00;99.90;;;;;;5066326;28;20268;-64
2024/01/16 04:51:25;;;;;;;6.15;2.42;;;-0.10;99.90;;;;;;5067556;28;20357;-63
2024/01/16 04:53:52;;;;;;;4.35;1.52;;;0.00;99.90;;;;;;5068215;28;20404;-64
2024/01/16 04:56:19;;;;;;;6.03;1.52;;;-0.10;99.90;;;;;;5067839;28;20059;-64
2024/01/16 04:58:45;;;;;;;7.75;2.15;;;0.00;99.90;;;;;;5068091;28;20061;-64
2024/01/16 05:01:12;;;;;;;;;;;0.00;99.90;;;;;;5067909;28;20458;-64
2024/01/16 05:03:39;;;;;;;2.85;1.70;;;0.00;99.90;;;;;;5068415;28;19989;-63
2024/01/16 05:06:15;;;;;;;;;;;0.00;99.90;;;;;;5068157;28;20491;-64
2024/01/16 05:08:41;;;;;;;4.72;1.75;;;0.00;99.90;;;;;;5068867;28;20328;-64
2024/01/16 05:11:08;;;;;;;6.97;1.70;;;-0.10;99.90;;;;;;5069109;28;20169;-63
2024/01/16 05:13:35;;;;;;;4.95;2.08;;;-0.20;99.90;;;;;;5071619;28;20062;-64
2024/01/16 05:16:01;;;;;;;6.45;1.52;;;-0.10;99.90;;;;;;5054917;28;20471;-63
2024/01/16 05:18:27;;;;;;;;;;;-0.20;99.90;;;;;;5072389;28;20455;-64
2024/01/16 05:20:55;;;;;;;4.00;1.63;;;-0.30;99.90;;;;;;5070826;28;19921;-63
2024/01/16 05:23:22;;;;;;;3.33;1.50;;;-0.40;99.90;;;;;;5071516;28;20363;-63
2024/01/16 05:25:49;;;;;;;5.13;2.28;;;-0.30;99.90;;;;;;5071362;28;20052;-62
2024/01/16 05:28:15;;;;;;;4.35;1.60;;;-0.30;99.90;;;;;;5071684;28;20068;-64
2024/01/16 05:30:42;;;;;;;7.93;1.95;;;-0.30;99.90;;;;;;5071971;28;20049;-65
2024/01/16 05:33:08;;;;;;;5.55;1.92;;;-0.30;99.90;;;;;;5071758;28;20341;-64
2024/01/16 05:35:34;;;;;;;5.70;2.00;;;-0.30;99.90;;;;;;5071075;28;20102;-64
2024/01/16 05:38:01;;;;;;;;;;;-0.30;99.90;;;;;;5072707;28;20147;-63
2024/01/16 05:40:27;;;;;;;4.18;1.90;;;-0.30;99.90;;;;;;5104381;28;19939;-63
2024/01/16 05:42:53;;;;;;;;;;;-0.40;99.90;;;;;;5071737;28;20087;-63
2024/01/16 05:45:19;;;;;;;2.28;1.50;;;-0.20;99.90;;;;;;5071928;28;19921;-64
2024/01/16 05:47:46;;;;;;;;;;;-0.30;99.90;;;;;;5066223;28;20057;-64
2024/01/16 05:50:12;;;;;;;5.68;2.70;;;-0.40;99.90;;;;;;5053066;28;20403;-63
2024/01/16 05:52:40;;;;;;;;;;;-0.30;99.90;;;;;;5054585;28;20059;-64
2024/01/16 05:55:07;;;;;;;6.47;2.05;;;-0.30;99.90;;;;;;5053663;28;19924;-64
2024/01/16 05:57:34;;;;;;;4.40;2.00;;;-0.30;99.90;;;;;;5053915;28;20044;-64
2024/01/16 06:00:03;;;;;;;3.53;1.73;;;-0.40;99.90;;;;;;5073249;28;20044;-64
2024/01/16 06:02:29;;;;;;;6.57;2.45;;;-0.20;99.90;;;;;;5077075;28;20476;-64
2024/01/16 06:04:56;;;;;;;3.58;1.83;;;-0.30;99.90;;;;;;5062320;28;20056;-65
2024/01/16 06:07:22;;;;;;;;;;;-0.30;99.90;;;;;;5076801;28;20057;-63
2024/01/16 06:09:48;;;;;;;4.00;2.03;;;-0.20;99.90;;;;;;5082868;28;20340;-63
2024/01/16 06:12:14;;;;;;;;;;;-0.20;99.90;;;;;;5060948;28;20048;-63
2024/01/16 06:14:41;;;;;;;4.13;2.00;;;-0.30;99.90;;;;;;5074149;28;19947;-63
2024/01/16 06:17:07;;;;;;;;;;;-0.30;99.90;;;;;;5091961;28;20101;-63
2024/01/16 06:19:33;;;;;;;3.20;1.95;;;-0.30;99.90;;;;;;5062532;28;19928;-62
2024/01/16 06:22:00;;;;;;;;;;;-0.10;99.90;;;;;;5059215;28;20045;-63
2024/01/16 06:24:26;;;;;;;4.50;2.70;;;-0.20;99.90;;;;;;5067320;28;19928;-63
2024/01/16 06:26:52;;;;;;;5.00;2.60;;;-0.10;99.90;;;;;;5071319;28;20052;-63
2024/01/16 06:29:19;;;;;;;;;;;-0.20;99.90;;;;;;5053117;28;20280;-62
2024/01/16 06:31:45;;;;;;;3.97;1.95;;;-0.20;99.90;;;;;;5055922;28;19924;-62
2024/01/16 06:34:11;;;;;;;;;;;-0.30;99.90;;;;;;5060338;28;20357;-64
2024/01/16 06:36:37;;;;;;;6.75;3.22;;;-0.20;99.90;;;;;;5073201;28;19927;-62
2024/01/16 06:39:04;;;;;;;;;;;-0.30;99.90;;;;;;5073718;28;20052;-64
2024/01/16 06:41:30;;;;;;;7.63;2.78;;;-0.10;99.90;;;;;;5043779;28;20260;-63
2024/01/16 06:43:56;;;;;;;;;;;-0.30;99.90;;;;;;5058652;28;20056;-62
2024/01/16 06:46:22;;;;;;;5.18;2.92;;;-0.10;99.90;;;;;;5076094;28;19935;-64
2024/01/16 06:48:49;;;;;;;5.38;3.30;;;-0.30;99.90;;;;;;5072144;28;20052;-63
2024/01/16 06:51:15;;;;;;;;;;;-0.20;99.90;;;;;;5090329;28;20055;-63
2024/01/16 06:53:42;;;;;;;6.10;3.50;;;-0.10;99.90;;;;;;5079757;28;20319;-63
2024/01/16 06:56:08;;;;;;;;;;;-0.10;99.90;;;;;;5100127;28;20456;-62
2024/01/16 06:58:35;;;;;;;5.82;3.50;;;-0.30;99.90;;;;;;5074737;28;19920;-63
2024/01/16 07:01:02;;;;;;;5.18;2.90;;;-0.30;99.90;;;;;;5089712;28;20460;-64
2024/01/16 07:03:29;;;;;;;8.02;3.95;;;-0.20;99.90;;;;;;5090394;28;20094;-61
2024/01/16 07:05:55;;;;;;;;;;;-0.30;99.90;;;;;;5072723;28;20036;-63
2024/01/16 07:08:21;;;;;;;6.30;2.95;;;-0.10;99.90;;;;;;5089844;28;20307;-63
2024/01/16 07:10:47;;;;;;;;;;;-0.30;99.90;;;;;;5072076;28;20052;-64
2024/01/16 07:13:14;;;;;;;6.25;3.00;;;-0.30;99.90;;;;;;5106399;28;19920;-64
2024/01/16 07:15:40;;;;;;;11.05;4.18;;;-0.10;99.90;;;;;;5072512;28;20063;-63
2024/01/16 07:18:06;;;;;;;;;;;-0.20;99.90;;;;;;5073702;28;20055;-63
2024/01/16 07:20:33;;;;;;;6.70;3.33;;;-0.20;99.90;;;;;;5071645;28;20374;-64
2024/01/16 07:22:59;;;;;;;;;;;-0.20;99.90;;;;;;5073238;28;20093;-63
2024/01/16 07:25:25;;;;;;;6.40;2.80;;;-0.20;99.90;;;;;;5089569;28;19920;-64
2024/01/16 07:27:51;;;;;;;7.15;3.17;;;0.00;99.90;;;;;;5072924;28;20123;-63
2024/01/16 07:30:18;;;;;;;;;;;-0.10;99.90;;;;;;5072466;28;20060;-63
2024/01/16 07:32:44;;;;;;;4.70;3.00;;;0.10;99.90;;;;;;5072514;28;19939;-63
2024/01/16 07:35:11;;;;;;;7.00;2.90;;;0.00;99.90;;;;;;5071807;28;20055;-64
2024/01/16 07:37:37;;;;;;;6.53;3.30;;;0.00;99.90;;;;;;5071646;28;20093;-63
2024/01/16 07:40:05;;;;;;;5.72;3.20;;;0.00;99.90;;;;;;5089406;28;20461;-64
2024/01/16 07:42:34;;;;;;;7.90;3.08;;;0.20;99.90;;;;;;5072134;28;20064;-64
2024/01/16 07:45:04;;;;;;;8.07;3.50;;;0.00;99.90;;;;;;5089988;28;20406;-64
2024/01/16 07:47:31;;;;;;;7.00;3.30;;;0.20;99.90;;;;;;5084054;28;20460;-63
2024/01/16 07:49:58;;;;;;;6.50;3.20;;;0.30;99.90;;;;;;5080721;28;20422;-63
2024/01/16 07:52:24;;;;;;;6.82;3.60;;;0.10;99.90;;;;;;5102841;28;20043;-61
2024/01/16 07:54:50;;;;;;;;;;;0.20;99.90;;;;;;5080406;28;20047;-62
2024/01/16 07:57:16;;;;;;;7.80;3.38;;;0.30;99.90;;;;;;5077549;28;20327;-63
2024/01/16 07:59:43;;;;;;;;;;;0.20;99.90;;;;;;5099005;28;20104;-62
2024/01/16 08:02:09;;;;;;;8.55;4.80;;;0.20;99.90;;;;;;5072254;28;19939;-63
2024/01/16 08:04:35;;;;;;;;;;;0.30;99.90;;;;;;5071898;28;20077;-62
2024/01/16 08:07:02;;;;;;;7.88;3.55;;;0.40;99.90;;;;;;5072126;28;19923;-62
2024/01/16 08:09:28;;;;;;;6.75;4.10;;;0.30;99.90;;;;;;5066896;28;20048;-62
2024/01/16 08:11:54;;;;;;;6.85;4.57;;;0.40;99.90;;;;;;5066265;28;20051;-63
2024/01/16 08:14:20;;;;;;;;;;;0.20;99.90;;;;;;5072055;28;20058;-63
2024/01/16 08:16:47;;;;;;;6.18;4.45;;;0.20;99.90;;;;;;5089193;28;19942;-62
2024/01/16 08:19:13;;;;;;;8.10;4.97;;;0.30;99.90;;;;;;5071704;28;20044;-62
2024/01/16 08:21:40;;;;;;;7.25;5.10;;;0.40;99.90;;;;;;5070457;28;20063;-63
2024/01/16 08:24:06;;;;;;;;;;;0.20;99.90;;;;;;5072256;28;20060;-63
2024/01/16 08:26:32;;;;;;;7.25;4.85;;;0.20;99.90;;;;;;5088086;28;20289;-63
2024/01/16 08:28:58;;;;;;;8.82;4.10;;;0.30;99.90;;;;;;5088651;28;20452;-62
2024/01/16 08:31:25;;;;;;;8.82;4.18;;;0.40;99.90;;;;;;5084100;28;20049;-63
2024/01/16 08:33:51;;;;;;;;;;;0.20;99.90;;;;;;5092181;28;20062;-63
2024/01/16 08:36:18;;;;;;;7.38;4.97;;;0.50;99.90;;;;;;5073668;28;19928;-63
2024/01/16 08:38:44;;;;;;;7.32;3.67;;;0.40;99.90;;;;;;5091066;28;20051;-62
2024/01/16 08:41:10;;;;;;;7.18;4.05;;;0.30;99.90;;;;;;5090633;28;20044;-63
2024/01/16 08:43:37;;;;;;;7.00;4.07;;;0.50;99.90;;;;;;5073447;28;20070;-63
2024/01/16 08:46:03;;;;;;;;;;;0.30;99.90;;;;;;5074723;28;20044;-63
2024/01/16 08:48:29;;;;;;;5.00;3.42;;;0.30;99.90;;;;;;5064339;28;19920;-63
2024/01/16 08:50:56;;;;;;;;;;;0.40;99.90;;;;;;5092255;28;20055;-63
2024/01/16 08:53:23;;;;;;;7.22;3.90;;;0.30;99.90;;;;;;5073633;28;20001;-63
2024/01/16 08:55:49;;;;;;;5.93;4.15;;;0.50;99.90;;;;;;5058871;28;20349;-63
2024/01/16 08:58:15;;;;;;;11.13;4.82;;;0.50;99.90;;;;;;5057144;28;20114;-63
2024/01/16 09:00:42;;;;;;;8.48;3.65;;;0.50;99.90;;;;;;5056195;28;20067;-64
2024/01/16 09:03:08;;;;;;;;;;;0.50;99.90;;;;;;5075015;28;20048;-63
2024/01/16 09:05:41;;;;;;;8.40;3.95;;;0.40;99.90;;;;;;5059965;28;19936;-64
2024/01/16 09:08:07;;;;;;;9.57;4.05;;;0.60;99.90;;;;;;5090235;28;20056;-62
2024/01/16 09:10:33;;;;;;;5.53;3.33;;;0.40;99.90;;;;;;5074062;28;20071;-64
2024/01/16 09:12:59;;;;;;;;;;;0.50;99.90;;;;;;5075085;28;20135;-65
2024/01/16 09:15:25;;;;;;;5.10;3.40;;;0.50;99.90;;;;;;5074971;28;19928;-63
2024/01/16 09:17:52;;;;;;;;;;;0.60;99.90;;;;;;5074919;28;20045;-63
2024/01/16 09:20:18;;;;;;;4.82;3.30;;;0.60;99.90;;;;;;5073560;28;20288;-62
2024/01/16 09:22:44;;;;;;;;;;;0.80;99.90;;;;;;5074290;28;20793;-63
2024/01/16 09:25:10;;;;;;;6.10;3.15;;;0.60;99.90;;;;;;5056791;28;19932;-64
2024/01/16 09:27:36;;;;;;;;;;;0.70;99.90;;;;;;5074414;28;20048;-63
2024/01/16 09:30:07;;;;;;;5.38;3.28;;;0.90;99.90;;;;;;5073713;28;20010;-63
2024/01/16 09:32:35;;;;;;;6.82;3.67;;;0.80;99.90;;;;;;5056215;28;20127;-65
2024/01/16 09:35:04;;;;;;;5.75;4.18;;;0.80;99.90;;;;;;5056563;28;20048;-63
2024/01/16 09:37:30;;;;;;;6.70;3.85;;;1.00;99.90;;;;;;5040017;28;20060;-65
2024/01/16 09:39:56;;;;;;;;;;;1.10;99.90;;;;;;5073117;28;20040;-63
2024/01/16 09:42:24;;;;;;;18.77;6.93;;;1.10;99.90;;;;;;5071306;28;19920;-63
2024/01/16 09:44:52;;;;;;;11.45;3.95;;;1.20;99.90;;;;;;5072349;28;20048;-64
2024/01/16 09:47:19;;;;;;;15.55;5.60;;;1.00;99.90;;;;;;5070812;28;20391;-63
2024/01/16 09:49:47;;;;;;;10.05;2.92;;;1.00;99.90;;;;;;5072264;28;20048;-64
2024/01/16 09:52:13;;;;;;;10.73;2.80;;;0.90;99.90;;;;;;5053616;28;20475;-63
2024/01/16 09:54:39;;;;;;;5.32;2.22;;;0.90;99.90;;;;;;5071590;28;20044;-63
2024/01/16 09:57:07;;;;;;;7.72;2.70;;;1.10;99.90;;;;;;5071980;28;20155;-63
2024/01/16 09:59:36;;;;;;;9.02;2.75;;;1.10;99.90;;;;;;5055426;28;20059;-62
2024/01/16 10:02:06;;;;;;;10.35;3.40;;;1.10;99.90;;;;;;5073394;28;20059;-63
2024/01/16 10:04:34;;;;;;;17.85;6.18;;;1.10;99.90;;;;;;5055763;28;20426;-64
2024/01/16 10:07:03;;;;;;;20.38;4.93;;;1.00;99.90;;;;;;5073564;28;20122;-65
2024/01/16 10:09:30;;;;;;;21.23;5.30;;;1.00;99.90;;;;;;5072986;28;20041;-63
2024/01/16 10:11:56;;;;;;;26.38;7.45;;;1.10;99.90;;;;;;5055310;28;20045;-64
2024/01/16 10:14:25;;;;;;;17.10;4.15;;;1.20;99.90;;;;;;5056702;28;20041;-62
2024/01/16 10:16:56;;;;;;;27.45;5.72;;;1.30;99.90;;;;;;5073936;28;20387;-63
2024/01/16 10:19:22;;;;;;;25.30;6.05;;;1.30;99.90;;;;;;5060942;28;20083;-63
2024/01/16 10:21:51;;;;;;;23.58;5.57;;;1.30;99.90;;;;;;5055555;28;20056;-64
2024/01/16 10:24:18;;;;;;;20.30;6.30;;;1.40;99.90;;;;;;5056160;28;20052;-64
2024/01/16 10:26:44;;;;;;;19.08;6.65;;;1.40;99.90;;;;;;5073253;28;20435;-64
2024/01/16 10:29:10;;;;;;;;;;;1.40;99.90;;;;;;5073859;28;20118;-63
2024/01/16 10:31:40;;;;;;;10.55;3.22;;;1.30;99.90;;;;;;5055305;28;19932;-63
2024/01/16 10:34:21;;;;;;;6.03;2.63;;;1.20;99.90;;;;;;5073299;28;20491;-64
2024/01/16 10:36:49;;;;;;;14.75;3.65;;;1.20;99.90;;;;;;5039032;28;20067;-62
2024/01/16 10:39:16;;;;;;;23.80;4.85;;;1.40;99.90;;;;;;5053325;28;20059;-63
2024/01/16 10:42:04;;;;;;;29.08;7.32;;;1.30;99.90;;;;;;5063642;28;20420;-63
2024/01/16 10:44:32;;;;;;;11.77;2.92;;;1.30;99.90;;;;;;5055698;28;20131;-63
2024/01/16 10:47:13;;;;;;;5.60;2.38;;;1.40;99.90;;;;;;5039554;28;20341;-64
2024/01/16 10:49:40;;;;;;;5.07;2.00;;;1.50;99.90;;;;;;5093198;28;20048;-64
2024/01/16 10:52:11;;;;;;;11.18;3.70;;;1.40;99.90;;;;;;5073494;28;20044;-63
2024/01/16 10:54:45;;;;;;;7.15;3.13;;;1.30;99.90;;;;;;5091828;28;20360;-63
2024/01/16 10:57:13;;;;;;;7.68;3.60;;;1.40;99.90;;;;;;5074832;28;20044;-65
2024/01/16 11:00:12;;;;;;;6.05;3.53;;;1.40;99.90;;;;;;5073558;28;20345;-63
2024/01/16 11:02:47;;;;;;;9.38;3.55;;;1.30;99.90;;;;;;5091677;28;20047;-63
2024/01/16 11:05:16;;;;;;;6.05;3.15;;;1.30;99.90;;;;;;5073650;28;20055;-63
2024/01/16 11:07:43;;;;;;;5.93;3.30;;;1.20;99.90;;;;;;5091195;28;20387;-64
2024/01/16 11:10:10;;;;;;;4.45;3.00;;;1.40;99.90;;;;;;5091080;28;20048;-63
2024/01/16 11:12:41;;;;;;;5.25;2.92;;;1.40;99.90;;;;;;5073019;28;20059;-62
2024/01/16 11:15:12;;;;;;;5.50;3.17;;;1.30;99.90;;;;;;5069421;28;20052;-64
2024/01/16 11:17:39;;;;;;;7.93;2.83;;;1.40;99.90;;;;;;5073432;28;20066;-63
2024/01/16 11:20:13;;;;;;;7.10;4.35;;;1.50;99.90;;;;;;5090984;28;20055;-66
2024/01/16 11:22:44;;;;;;;7.13;3.17;;;1.50;99.90;;;;;;5090950;28;20056;-65
2024/01/16 11:25:12;;;;;;;6.22;3.15;;;1.60;99.90;;;;;;5091140;28;20052;-64
2024/01/16 11:27:39;;;;;;;7.30;3.00;;;1.60;99.90;;;;;;5073604;28;20048;-62
2024/01/16 11:30:11;;;;;;;6.78;4.40;;;1.40;99.90;;;;;;5072739;28;20056;-64
2024/01/16 11:32:41;;;;;;;9.25;5.10;;;1.60;99.90;;;;;;5072891;28;20055;-63
2024/01/16 11:35:09;;;;;;;9.20;5.15;;;1.40;99.90;;;;;;5072334;28;20048;-64
2024/01/16 11:37:42;;;;;;;9.52;5.85;;;1.60;99.90;;;;;;5068739;28;20062;-65
2024/01/16 11:40:21;;;;;;;11.20;6.00;;;1.60;99.90;;;;;;5035866;28;20049;-64
2024/01/16 11:42:49;;;;;;;8.98;6.03;;;1.50;99.90;;;;;;5090254;28;20468;-64
2024/01/16 11:45:27;;;;;;;10.77;6.28;;;1.60;99.90;;;;;;5090525;28;20131;-63
2024/01/16 11:48:12;;;;;;;11.88;6.70;;;1.50;99.90;;;;;;5090815;28;20063;-63
2024/01/16 11:50:39;;;;;;;9.82;6.45;;;1.40;99.90;;;;;;5072987;28;20058;-64
2024/01/16 11:53:06;;;;;;;9.60;6.07;;;1.60;99.90;;;;;;5090325;28;20044;-64
2024/01/16 11:55:42;;;;;;;10.60;5.72;;;1.50;99.90;;;;;;5093840;28;20045;-66
2024/01/16 11:58:45;;;;;;;8.55;6.22;;;1.60;99.90;;;;;;5053025;28;20051;-64
2024/01/16 12:01:12;;;;;;;10.90;6.15;;;1.60;99.90;;;;;;5071955;28;20051;-63
2024/01/16 12:03:38;;;;;;;10.45;6.25;;;1.60;99.90;;;;;;5090584;28;20048;-64
2024/01/16 12:06:06;;;;;;;9.15;5.20;;;1.70;99.90;;;;;;5090450;28;20052;-63
2024/01/16 12:08:32;;;;;;;9.38;6.30;;;1.60;99.90;;;;;;5090733;28;20048;-64
2024/01/16 12:11:01;;;;;;;9.20;6.18;;;1.70;99.90;;;;;;5089975;28;20044;-65
2024/01/16 12:13:28;;;;;;;7.70;5.72;;;1.70;99.90;;;;;;5090453;28;20124;-63
2024/01/16 12:16:01;;;;;;;7.82;4.72;;;1.50;99.90;;;;;;5090132;28;20490;-64
2024/01/16 12:18:30;;;;;;;8.35;5.25;;;1.60;99.90;;;;;;5072804;28;20044;-65
2024/01/16 12:20:58;;;;;;;8.30;5.85;;;1.60;99.90;;;;;;5054404;28;20055;-64
2024/01/16 12:23:25;;;;;;;8.60;4.53;;;1.70;99.90;;;;;;5090281;28;20056;-64
2024/01/16 12:25:54;;;;;;;8.40;5.03;;;1.70;99.90;;;;;;5090308;28;20062;-64
2024/01/16 12:28:21;;;;;;;7.35;4.60;;;1.70;99.90;;;;;;5072375;28;20109;-62
2024/01/16 12:30:51;;;;;;;12.68;4.88;;;1.60;99.90;;;;;;5071813;28;20082;-64
2024/01/16 12:33:22;;;;;;;7.18;4.50;;;1.70;99.90;;;;;;5072416;28;20089;-63
2024/01/16 12:35:48;;;;;;;8.63;4.50;;;1.80;99.90;;;;;;5090301;28;20048;-64
2024/01/16 12:38:17;;;;;;;11.02;4.00;;;1.90;99.90;;;;;;5090378;28;20054;-64
2024/01/16 12:40:49;;;;;;;6.95;4.57;;;1.90;99.90;;;;;;5071648;28;20044;-64
2024/01/16 12:43:19;;;;;;;6.90;3.50;;;1.90;99.90;;;;;;5072278;28;20058;-63
2024/01/16 12:45:46;;;;;;;6.78;3.78;;;1.90;99.90;;;;;;5089796;28;20048;-64
2024/01/16 12:48:13;;;;;;;6.82;3.47;;;1.80;99.90;;;;;;5089868;28;20464;-64
2024/01/16 12:50:40;;;;;;;6.93;4.20;;;1.90;99.90;;;;;;5089004;28;20424;-64
2024/01/16 12:53:11;;;;;;;6.88;3.50;;;1.90;99.90;;;;;;5069688;28;20491;-63
2024/01/16 12:55:39;;;;;;;8.15;3.58;;;2.20;99.90;;;;;;5052165;28;20388;-64
2024/01/16 12:58:27;;;;;;;7.00;3.40;;;2.20;99.90;;;;;;5052225;28;20059;-63
2024/01/16 13:00:55;;;;;;;4.22;3.03;;;2.10;99.90;;;;;;5054017;28;20055;-63
2024/01/16 13:03:30;;;;;;;4.90;3.35;;;2.10;99.90;;;;;;5072090;28;20075;-64
2024/01/16 13:05:59;;;;;;;7.93;3.30;;;2.10;99.90;;;;;;5089993;28;20055;-64
2024/01/16 13:08:27;;;;;;;6.18;3.20;;;2.10;99.90;;;;;;5055686;28;20064;-64
2024/01/16 13:11:09;;;;;;;7.35;3.10;;;2.00;99.90;;;;;;5086813;28;20052;-63